Time;durP1;ratioP1;P1;durP2;ratioP2;P2;SDS_P1;SDS_P2;PMS_P1;PMS_P2;Temp;Humidity;BMP_temperature;BMP_pressure;BME280_temperature;BME280_humidity;BME280_pressure;Samples;Min_cycle;Max_cycle;Signal;HPM_P1;HPM_P2
2023/06/17 00:01:28;;;;;;;3.03;1.80;;;17.20;99.90;;;;;;4928823;29;20043;-75
2023/06/17 00:03:55;;;;;;;3.70;1.85;;;17.20;99.90;;;;;;4956110;28;20067;-75
2023/06/17 00:06:28;;;;;;;2.40;1.92;;;17.20;99.90;;;;;;4911712;29;20048;-76
2023/06/17 00:08:55;;;;;;;2.00;1.80;;;17.20;99.90;;;;;;4905656;29;20416;-78
2023/06/17 00:11:24;;;;;;;2.33;1.80;;;17.20;99.90;;;;;;4950039;28;20043;-74
2023/06/17 00:13:52;;;;;;;2.25;1.80;;;17.30;99.90;;;;;;4926179;29;20039;-74
2023/06/17 00:16:23;;;;;;;2.38;1.90;;;17.20;99.90;;;;;;4926120;29;20416;-75
2023/06/17 00:18:53;;;;;;;3.75;2.00;;;17.20;99.90;;;;;;4925336;29;20119;-79
2023/06/17 00:21:20;;;;;;;2.00;1.80;;;17.30;99.90;;;;;;4923619;28;20055;-75
2023/06/17 00:23:47;;;;;;;2.95;1.80;;;17.20;99.90;;;;;;4941483;28;20042;-81
2023/06/17 00:26:15;;;;;;;2.25;1.77;;;17.20;99.90;;;;;;4924449;28;20050;-74
2023/06/17 00:28:44;;;;;;;2.40;1.90;;;17.20;99.90;;;;;;4952593;28;20094;-81
2023/06/17 00:31:14;;;;;;;2.40;1.90;;;17.20;99.90;;;;;;4937062;28;20378;-73
2023/06/17 00:33:41;;;;;;;5.60;2.10;;;17.20;99.90;;;;;;4953750;28;20047;-72
2023/06/17 00:36:08;;;;;;;2.40;1.90;;;17.10;99.90;;;;;;4959694;28;20447;-73
2023/06/17 00:38:38;;;;;;;2.45;2.00;;;17.10;99.90;;;;;;4953790;28;20047;-85
2023/06/17 00:41:08;;;;;;;2.10;1.90;;;17.30;99.90;;;;;;4942540;28;20047;-74
2023/06/17 00:43:35;;;;;;;2.50;1.90;;;17.20;99.90;;;;;;4958339;28;20047;-77
2023/06/17 00:46:07;;;;;;;3.05;2.15;;;17.30;99.90;;;;;;4923838;28;20047;-72
2023/06/17 00:48:40;;;;;;;2.60;1.95;;;17.20;99.90;;;;;;4914616;23;20436;-71
2023/06/17 00:51:08;;;;;;;2.40;2.10;;;17.20;99.90;;;;;;4900582;29;20104;-74
2023/06/17 00:53:37;;;;;;;2.85;2.17;;;17.20;99.90;;;;;;4933368;23;20059;-78
2023/06/17 00:56:05;;;;;;;2.90;2.20;;;17.30;99.90;;;;;;4882339;29;20116;-75
2023/06/17 00:58:33;;;;;;;2.45;1.85;;;17.20;99.90;;;;;;4865451;29;20608;-73
2023/06/17 01:01:01;;;;;;;4.30;2.20;;;17.20;99.90;;;;;;4877894;29;20044;-75
2023/06/17 01:03:31;;;;;;;3.30;1.98;;;17.10;99.90;;;;;;4873449;29;20551;-74
2023/06/17 01:06:08;;;;;;;2.58;2.00;;;17.10;99.90;;;;;;4907171;29;20584;-72
2023/06/17 01:08:53;;;;;;;2.70;2.10;;;17.10;99.90;;;;;;4876576;29;20056;-79
2023/06/17 01:11:22;;;;;;;2.75;2.00;;;17.10;99.90;;;;;;4865094;29;20049;-72
2023/06/17 01:13:53;;;;;;;2.55;2.03;;;17.00;99.90;;;;;;4894655;29;20044;-74
2023/06/17 01:16:21;;;;;;;3.53;2.30;;;17.10;99.90;;;;;;4896153;29;20076;-74
2023/06/17 01:18:52;;;;;;;2.83;2.10;;;17.10;99.90;;;;;;4900776;23;20058;-72
2023/06/17 01:21:23;;;;;;;2.30;1.80;;;17.10;99.90;;;;;;4932944;29;20043;-74
2023/06/17 01:23:53;;;;;;;;;;;17.10;99.90;;;;;;4935824;29;20036;-75
2023/06/17 01:26:22;;;;;;;3.92;2.22;;;17.00;99.90;;;;;;4922556;29;19919;-74
2023/06/17 01:28:49;;;;;;;2.88;2.10;;;17.10;99.90;;;;;;4930847;29;20039;-76
2023/06/17 01:31:18;;;;;;;2.67;2.00;;;17.00;99.90;;;;;;4920894;28;20123;-76
2023/06/17 01:33:48;;;;;;;2.00;1.80;;;17.00;99.90;;;;;;4920278;29;20055;-74
2023/06/17 01:36:25;;;;;;;3.17;2.10;;;17.10;99.90;;;;;;4948136;29;20098;-78
2023/06/17 01:38:59;;;;;;;5.20;2.00;;;17.00;99.90;;;;;;4913494;29;20067;-82
2023/06/17 01:41:34;;;;;;;2.35;1.92;;;17.10;99.90;;;;;;4920070;29;20043;-78
2023/06/17 01:44:04;;;;;;;2.75;1.98;;;17.10;99.90;;;;;;4917713;29;20048;-76
2023/06/17 01:46:32;;;;;;;2.00;1.80;;;17.10;99.90;;;;;;4923652;29;20031;-74
2023/06/17 01:48:59;;;;;;;2.58;2.15;;;17.20;99.90;;;;;;4935221;29;20078;-74
2023/06/17 01:51:26;;;;;;;2.20;1.70;;;17.20;99.90;;;;;;4923239;29;20072;-73
2023/06/17 01:53:54;;;;;;;2.05;1.70;;;17.10;99.90;;;;;;4922111;29;20052;-75
2023/06/17 01:56:21;;;;;;;3.47;2.05;;;17.20;99.90;;;;;;4916514;29;20051;-75
2023/06/17 01:58:48;;;;;;;1.83;1.70;;;17.20;99.90;;;;;;4918489;29;20126;-72
2023/06/17 02:01:15;;;;;;;3.17;1.90;;;17.10;99.90;;;;;;4918150;29;20055;-74
2023/06/17 02:03:45;;;;;;;2.65;1.90;;;17.20;99.90;;;;;;4919903;29;20499;-71
2023/06/17 02:06:12;;;;;;;1.80;1.70;;;17.20;99.90;;;;;;4920184;29;20490;-74
2023/06/17 02:08:40;;;;;;;2.20;1.80;;;17.20;99.90;;;;;;4921528;29;20044;-74
2023/06/17 02:11:07;;;;;;;3.05;1.70;;;17.20;99.90;;;;;;4937281;29;20038;-75
2023/06/17 02:13:35;;;;;;;1.83;1.60;;;17.20;99.90;;;;;;4937727;29;20051;-74
2023/06/17 02:16:02;;;;;;;2.30;1.70;;;17.20;99.90;;;;;;4938189;29;20067;-78
2023/06/17 02:18:32;;;;;;;1.75;1.65;;;17.20;99.90;;;;;;4938318;28;20071;-74
2023/06/17 02:21:01;;;;;;;1.88;1.70;;;17.20;99.90;;;;;;4938651;28;20050;-75
2023/06/17 02:23:29;;;;;;;1.60;1.50;;;17.30;99.90;;;;;;4924085;29;20437;-74
2023/06/17 02:25:57;;;;;;;3.28;1.60;;;17.20;99.90;;;;;;4947628;28;20410;-73
2023/06/17 02:28:25;;;;;;;1.88;1.70;;;17.20;99.90;;;;;;4945680;28;20069;-77
2023/06/17 02:30:52;;;;;;;1.70;1.60;;;17.30;99.90;;;;;;4926153;29;20055;-75
2023/06/17 02:33:22;;;;;;;1.70;1.60;;;17.30;99.90;;;;;;4921517;29;20051;-74
2023/06/17 02:35:56;;;;;;;1.67;1.58;;;17.20;99.90;;;;;;4950178;28;20039;-74
2023/06/17 02:38:40;;;;;;;1.85;1.60;;;17.20;99.90;;;;;;4903342;29;20044;-75
2023/06/17 02:41:09;;;;;;;1.70;1.60;;;17.20;99.90;;;;;;4935199;28;20058;-73
2023/06/17 02:43:37;;;;;;;1.70;1.60;;;17.20;99.90;;;;;;4921600;29;20075;-74
2023/06/17 02:46:06;;;;;;;1.70;1.60;;;17.20;99.90;;;;;;4922549;28;20051;-74
2023/06/17 02:48:33;;;;;;;1.63;1.52;;;17.30;99.90;;;;;;4938584;28;20123;-73
2023/06/17 02:51:00;;;;;;;1.95;1.70;;;17.10;99.90;;;;;;4922249;28;20067;-73
2023/06/17 02:53:33;;;;;;;1.60;1.50;;;17.20;99.90;;;;;;4959975;28;20035;-74
2023/06/17 02:56:02;;;;;;;2.85;1.70;;;17.20;99.90;;;;;;4920300;29;20055;-74
2023/06/17 02:58:29;;;;;;;1.70;1.60;;;17.20;99.90;;;;;;4937569;28;20036;-73
2023/06/17 03:00:57;;;;;;;1.70;1.60;;;17.20;99.90;;;;;;4954096;28;20053;-74
2023/06/17 03:03:36;;;;;;;1.70;1.60;;;17.10;99.90;;;;;;4956768;28;20043;-75
2023/06/17 03:06:05;;;;;;;1.88;1.70;;;17.20;99.90;;;;;;4921079;29;20066;-75
2023/06/17 03:08:35;;;;;;;2.85;1.60;;;17.10;99.90;;;;;;4949074;28;20044;-74
2023/06/17 03:11:02;;;;;;;1.88;1.70;;;17.20;99.90;;;;;;4955675;28;20131;-74
2023/06/17 03:13:30;;;;;;;1.60;1.50;;;17.10;99.90;;;;;;4957404;28;20043;-76
2023/06/17 03:16:01;;;;;;;2.20;1.92;;;17.10;99.90;;;;;;4941489;29;20520;-74
2023/06/17 03:18:47;;;;;;;1.70;1.60;;;17.00;99.90;;;;;;4938718;28;20580;-73
2023/06/17 03:21:14;;;;;;;1.75;1.65;;;17.00;99.90;;;;;;4953912;28;20043;-74
2023/06/17 03:23:42;;;;;;;1.77;1.67;;;17.10;99.90;;;;;;4922476;29;20052;-75
2023/06/17 03:26:09;;;;;;;2.80;1.75;;;17.10;99.90;;;;;;4940400;28;20054;-75
2023/06/17 03:28:37;;;;;;;2.28;1.77;;;17.10;99.90;;;;;;4943586;28;20078;-74
2023/06/17 03:31:05;;;;;;;1.80;1.70;;;17.10;99.90;;;;;;4954678;28;20379;-74
2023/06/17 03:33:32;;;;;;;1.88;1.70;;;17.00;99.90;;;;;;4946907;28;20039;-75
2023/06/17 03:36:00;;;;;;;2.30;1.90;;;17.00;99.90;;;;;;4957431;28;20057;-78
2023/06/17 03:38:27;;;;;;;2.28;2.00;;;17.00;99.90;;;;;;4944751;28;20058;-75
2023/06/17 03:40:54;;;;;;;5.03;2.28;;;16.90;99.90;;;;;;4956763;28;20128;-77
2023/06/17 03:43:21;;;;;;;2.55;2.10;;;17.00;99.90;;;;;;4921815;29;20440;-72
2023/06/17 03:45:48;;;;;;;2.20;1.90;;;16.90;99.90;;;;;;4937032;28;20048;-76
2023/06/17 03:48:16;;;;;;;2.45;2.10;;;17.00;99.90;;;;;;4919655;29;20043;-74
2023/06/17 03:50:43;;;;;;;2.28;1.98;;;17.00;99.90;;;;;;4950096;28;20408;-76
2023/06/17 03:53:10;;;;;;;2.35;1.80;;;17.00;99.90;;;;;;4911479;29;20122;-74
2023/06/17 03:55:39;;;;;;;3.15;2.00;;;17.00;99.90;;;;;;4955518;28;20047;-75
2023/06/17 03:58:06;;;;;;;2.33;1.90;;;17.00;99.90;;;;;;4937481;28;20046;-75
2023/06/17 04:00:35;;;;;;;2.25;2.03;;;17.00;99.90;;;;;;4935874;28;20059;-76
2023/06/17 04:03:02;;;;;;;2.38;2.03;;;16.90;99.90;;;;;;4937533;28;20046;-77
2023/06/17 04:05:31;;;;;;;2.30;2.00;;;17.00;99.90;;;;;;4937137;28;20492;-74
2023/06/17 04:07:59;;;;;;;2.47;2.00;;;17.00;99.90;;;;;;4936446;28;20540;-74
2023/06/17 04:10:26;;;;;;;2.90;2.10;;;17.00;99.90;;;;;;4920823;28;20040;-73
2023/06/17 04:12:54;;;;;;;2.63;2.08;;;17.10;99.90;;;;;;4946668;28;20070;-74
2023/06/17 04:15:21;;;;;;;2.67;2.17;;;17.10;99.90;;;;;;4911344;29;20051;-73
2023/06/17 04:17:48;;;;;;;3.20;2.25;;;17.10;99.90;;;;;;4944849;28;20066;-73
2023/06/17 04:20:16;;;;;;;2.95;2.30;;;17.10;99.90;;;;;;4903838;29;20071;-74
2023/06/17 04:22:44;;;;;;;3.15;2.17;;;17.10;99.90;;;;;;4935288;28;20465;-74
2023/06/17 04:25:15;;;;;;;3.20;2.30;;;17.10;99.90;;;;;;4949969;28;20063;-80
2023/06/17 04:27:44;;;;;;;4.10;2.30;;;17.10;99.90;;;;;;4890254;23;20136;-74
2023/06/17 04:30:13;;;;;;;3.67;2.35;;;17.20;99.90;;;;;;4872332;29;20452;-72
2023/06/17 04:32:42;;;;;;;4.20;2.53;;;17.10;99.90;;;;;;4911516;29;20075;-74
2023/06/17 04:35:10;;;;;;;4.25;2.50;;;17.20;99.90;;;;;;4914740;29;20422;-75
2023/06/17 04:37:40;;;;;;;3.35;2.35;;;17.20;99.90;;;;;;4915778;29;20401;-74
2023/06/17 04:40:12;;;;;;;4.95;2.85;;;17.20;99.90;;;;;;4916220;29;20039;-75
2023/06/17 04:42:40;;;;;;;2.97;2.33;;;17.20;99.90;;;;;;4898599;29;20135;-73
2023/06/17 04:45:08;;;;;;;3.42;2.50;;;17.30;99.90;;;;;;4912536;29;20032;-75
2023/06/17 04:47:36;;;;;;;4.38;2.78;;;17.20;99.90;;;;;;4912190;29;20044;-73
2023/06/17 04:50:04;;;;;;;4.13;2.90;;;17.30;99.90;;;;;;4915710;29;20044;-72
2023/06/17 04:52:31;;;;;;;3.50;2.50;;;17.30;99.90;;;;;;4903809;29;20431;-75
2023/06/17 04:54:59;;;;;;;4.45;2.90;;;17.30;99.90;;;;;;4917007;29;20665;-76
2023/06/17 04:57:26;;;;;;;4.40;2.83;;;17.30;99.90;;;;;;4915470;29;20091;-74
2023/06/17 04:59:53;;;;;;;4.40;2.95;;;17.30;99.90;;;;;;4915512;29;20044;-74
2023/06/17 05:02:21;;;;;;;4.85;3.25;;;17.30;99.90;;;;;;4900488;29;20055;-73
2023/06/17 05:04:48;;;;;;;4.30;3.10;;;17.30;99.90;;;;;;4897292;29;20076;-73
2023/06/17 05:07:15;;;;;;;5.50;3.20;;;17.30;99.90;;;;;;4897613;29;20113;-74
2023/06/17 05:09:42;;;;;;;5.07;3.08;;;17.30;99.90;;;;;;4898801;29;20036;-73
2023/06/17 05:12:11;;;;;;;5.28;3.40;;;17.30;99.90;;;;;;4900789;29;20035;-74
2023/06/17 05:14:39;;;;;;;5.75;3.20;;;17.40;99.90;;;;;;4917156;29;20040;-73
2023/06/17 05:17:07;;;;;;;5.63;3.80;;;17.30;99.90;;;;;;4900824;29;20384;-73
2023/06/17 05:19:34;;;;;;;7.57;3.60;;;17.30;99.90;;;;;;4891583;29;20048;-77
2023/06/17 05:22:01;;;;;;;5.38;3.53;;;17.30;99.90;;;;;;4895150;29;20052;-75
2023/06/17 05:24:29;;;;;;;5.43;3.50;;;17.40;99.90;;;;;;4869575;29;20092;-75
2023/06/17 05:26:56;;;;;;;6.18;3.80;;;17.40;99.90;;;;;;4910243;29;20072;-75
2023/06/17 05:29:24;;;;;;;5.90;3.70;;;17.40;99.90;;;;;;4881851;29;20415;-76
2023/06/17 05:31:51;;;;;;;5.43;3.72;;;17.40;99.90;;;;;;4869782;29;20052;-76
2023/06/17 05:34:19;;;;;;;5.97;3.80;;;17.50;99.90;;;;;;4895239;29;20036;-81
2023/06/17 05:36:46;;;;;;;6.20;3.85;;;17.40;99.90;;;;;;4905217;29;20083;-75
2023/06/17 05:39:14;;;;;;;6.20;3.78;;;17.50;99.90;;;;;;4901919;29;20056;-75
2023/06/17 05:41:42;;;;;;;6.20;3.78;;;17.50;99.90;;;;;;4880885;29;20080;-77
2023/06/17 05:44:12;;;;;;;6.00;3.90;;;17.50;99.90;;;;;;4882584;29;20055;-75
2023/06/17 05:46:40;;;;;;;7.32;3.95;;;17.50;99.90;;;;;;4874029;29;20056;-74
2023/06/17 05:49:10;;;;;;;7.63;4.00;;;17.50;99.90;;;;;;4892672;29;20056;-76
2023/06/17 05:51:37;;;;;;;5.07;3.60;;;17.50;99.90;;;;;;4905826;29;20514;-73
2023/06/17 05:54:07;;;;;;;6.05;3.50;;;17.70;99.90;;;;;;4890262;29;20168;-74
2023/06/17 05:56:35;;;;;;;6.35;3.90;;;17.60;99.90;;;;;;4911047;29;20041;-76
2023/06/17 05:59:02;;;;;;;7.05;4.20;;;17.60;99.90;;;;;;4875863;29;20542;-75
2023/06/17 06:01:29;;;;;;;6.10;3.70;;;17.60;99.90;;;;;;4897672;29;20128;-73
2023/06/17 06:03:57;;;;;;;6.68;3.88;;;17.60;99.90;;;;;;4895044;29;20048;-74
2023/06/17 06:06:24;;;;;;;6.00;3.85;;;17.70;99.90;;;;;;4906979;29;20067;-74
2023/06/17 06:08:51;;;;;;;6.10;4.18;;;17.60;99.90;;;;;;4892158;29;20040;-77
2023/06/17 06:11:19;;;;;;;6.60;4.10;;;17.60;99.90;;;;;;4881578;29;20049;-75
2023/06/17 06:13:49;;;;;;;5.88;4.05;;;17.70;99.90;;;;;;4867133;29;20041;-73
2023/06/17 06:16:16;;;;;;;7.68;3.88;;;17.70;99.90;;;;;;4890987;29;20049;-74
2023/06/17 06:18:43;;;;;;;5.45;3.90;;;17.60;99.90;;;;;;4904624;29;20036;-75
2023/06/17 06:21:10;;;;;;;5.22;4.00;;;17.70;99.90;;;;;;4900032;29;20232;-73
2023/06/17 06:23:39;;;;;;;6.50;4.20;;;17.70;99.90;;;;;;4914627;29;20040;-74
2023/06/17 06:26:12;;;;;;;6.95;4.20;;;17.70;99.90;;;;;;4882588;29;20049;-76
2023/06/17 06:28:39;;;;;;;6.35;4.18;;;17.80;99.90;;;;;;4877231;29;20117;-76
2023/06/17 06:31:06;;;;;;;6.35;4.28;;;17.80;99.90;;;;;;4878177;29;20045;-74
2023/06/17 06:33:35;;;;;;;9.25;4.35;;;17.80;99.90;;;;;;4894237;29;20045;-76
2023/06/17 06:36:02;;;;;;;6.05;4.20;;;17.90;99.90;;;;;;4877466;29;20567;-75
2023/06/17 06:38:30;;;;;;;7.38;4.13;;;17.90;99.90;;;;;;4879649;29;20041;-74
2023/06/17 06:40:57;;;;;;;13.77;4.35;;;17.90;99.90;;;;;;4877127;29;20109;-76
2023/06/17 06:43:24;;;;;;;7.72;5.25;;;17.90;99.90;;;;;;4880642;29;20114;-75
2023/06/17 06:45:52;;;;;;;6.05;3.83;;;17.90;99.90;;;;;;4882169;29;20053;-73
2023/06/17 06:48:20;;;;;;;5.68;4.10;;;17.90;99.90;;;;;;4883547;29;20065;-73
2023/06/17 06:50:48;;;;;;;8.95;4.43;;;17.90;99.90;;;;;;4896853;29;20060;-75
2023/06/17 06:53:15;;;;;;;7.32;4.47;;;17.90;99.90;;;;;;4884083;29;20037;-75
2023/06/17 06:55:43;;;;;;;6.93;4.43;;;18.00;99.90;;;;;;4883578;29;20045;-75
2023/06/17 06:58:36;;;;;;;6.13;4.00;;;17.90;99.90;;;;;;4899648;29;20041;-77
2023/06/17 07:01:53;;;;;;;7.70;4.97;;;17.90;99.90;;;;;;4885031;29;20041;-75
2023/06/17 07:04:26;;;;;;;6.97;4.40;;;17.90;99.90;;;;;;4891646;29;20045;-75
2023/06/17 07:07:02;;;;;;;6.80;4.45;;;18.00;99.90;;;;;;4863544;29;20580;-76
2023/06/17 07:09:31;;;;;;;8.75;4.43;;;18.00;99.90;;;;;;4883784;29;20052;-75
2023/06/17 07:12:01;;;;;;;7.18;4.50;;;18.00;99.90;;;;;;4878239;29;20056;-74
2023/06/17 07:14:29;;;;;;;7.25;4.90;;;18.00;99.90;;;;;;4873450;29;20061;-73
2023/06/17 07:16:58;;;;;;;6.35;4.47;;;18.20;99.90;;;;;;4883062;29;20487;-75
2023/06/17 07:19:33;;;;;;;8.32;4.40;;;18.20;99.90;;;;;;4890643;29;20109;-74
2023/06/17 07:22:37;;;;;;;8.63;3.97;;;18.10;99.90;;;;;;4884373;29;20057;-74
2023/06/17 07:25:12;;;;;;;6.50;4.75;;;18.10;99.90;;;;;;4879175;29;20100;-74
2023/06/17 07:27:39;;;;;;;7.88;4.38;;;18.10;99.90;;;;;;4916709;29;20123;-74
2023/06/17 07:30:10;;;;;;;8.68;4.95;;;18.10;99.90;;;;;;4902385;29;20052;-74
2023/06/17 07:32:43;;;;;;;6.80;4.20;;;18.20;99.90;;;;;;4919841;29;20127;-74
2023/06/17 07:35:16;;;;;;;7.65;4.75;;;18.20;99.90;;;;;;4883876;29;20058;-76
2023/06/17 07:37:44;;;;;;;7.72;5.10;;;18.20;99.90;;;;;;4888867;29;20107;-75
2023/06/17 07:40:14;;;;;;;7.18;4.95;;;18.20;99.90;;;;;;4872315;29;20052;-75
2023/06/17 07:42:47;;;;;;;8.13;4.75;;;18.30;99.90;;;;;;4904661;29;20052;-74
2023/06/17 07:45:14;;;;;;;7.97;4.85;;;18.40;99.90;;;;;;4927398;29;20051;-80
2023/06/17 07:47:42;;;;;;;6.65;4.50;;;18.30;99.90;;;;;;4922581;29;20040;-76
2023/06/17 07:50:11;;;;;;;6.35;4.63;;;18.30;99.90;;;;;;4907014;29;20059;-74
2023/06/17 07:52:38;;;;;;;8.05;4.72;;;18.30;99.90;;;;;;4918326;29;20048;-75
2023/06/17 07:55:08;;;;;;;6.70;4.70;;;18.30;99.90;;;;;;4912486;29;20060;-77
2023/06/17 07:57:49;;;;;;;6.35;4.90;;;18.40;99.90;;;;;;4923361;29;20076;-79
2023/06/17 08:00:33;;;;;;;8.73;5.18;;;18.40;99.90;;;;;;4900512;29;20055;-81
2023/06/17 08:03:18;;;;;;;8.45;4.70;;;18.50;99.90;;;;;;4924167;29;20056;-75
2023/06/17 08:05:45;;;;;;;9.48;6.68;;;18.50;99.90;;;;;;4922614;29;20044;-80
2023/06/17 08:08:20;;;;;;;14.18;8.93;;;18.60;99.90;;;;;;4922784;29;20040;-73
2023/06/17 08:14:16;;;;;;;8.52;5.80;;;18.70;99.90;;;;;;4894484;29;19923;-73
2023/06/17 08:16:43;;;;;;;9.52;5.50;;;18.60;99.90;;;;;;4917007;29;20040;-73
2023/06/17 08:19:12;;;;;;;9.20;5.80;;;18.60;99.90;;;;;;4896348;29;20462;-81
2023/06/17 08:21:42;;;;;;;8.15;5.45;;;18.60;99.90;;;;;;4886247;29;20418;-79
2023/06/17 08:24:25;;;;;;;8.70;5.30;;;18.50;99.90;;;;;;4888915;29;20048;-76
2023/06/17 08:27:17;;;;;;;7.55;5.18;;;18.50;99.90;;;;;;4892940;29;20184;-77
2023/06/17 08:29:52;;;;;;;8.23;5.20;;;18.50;99.90;;;;;;4893255;29;20048;-75
2023/06/17 08:32:20;;;;;;;10.75;6.32;;;18.50;99.90;;;;;;4918905;29;20104;-75
2023/06/17 08:34:50;;;;;;;8.82;5.65;;;18.50;99.90;;;;;;4918144;29;20164;-76
2023/06/17 08:37:43;;;;;;;12.57;6.32;;;18.60;99.90;;;;;;4908739;29;20056;-75
2023/06/17 08:40:23;;;;;;;8.32;5.22;;;18.60;99.90;;;;;;4912874;29;20594;-73
2023/06/17 08:43:05;;;;;;;10.38;5.78;;;18.60;99.90;;;;;;4915365;29;20040;-72
2023/06/17 08:45:37;;;;;;;9.93;5.88;;;18.70;99.90;;;;;;4916684;29;20048;-74
2023/06/17 08:48:09;;;;;;;9.63;5.72;;;18.70;99.90;;;;;;4906091;29;20055;-75
2023/06/17 08:50:39;;;;;;;11.70;5.88;;;18.60;99.90;;;;;;4903950;29;20049;-77
2023/06/17 08:53:07;;;;;;;10.10;6.68;;;18.70;99.90;;;;;;4919222;29;20048;-75
2023/06/17 08:55:35;;;;;;;8.10;5.25;;;18.60;99.90;;;;;;4920850;29;20068;-73
2023/06/17 08:58:04;;;;;;;9.52;5.60;;;18.70;99.90;;;;;;4885238;29;20059;-73
2023/06/17 09:00:31;;;;;;;11.45;6.00;;;18.80;99.90;;;;;;4916350;29;20519;-75
2023/06/17 09:03:00;;;;;;;8.30;6.13;;;18.70;99.90;;;;;;4919229;29;20070;-74
2023/06/17 09:05:42;;;;;;;11.53;6.50;;;18.70;99.90;;;;;;4919608;29;20100;-77
2023/06/17 09:08:18;;;;;;;7.68;5.55;;;18.80;99.90;;;;;;4923034;29;20052;-74
2023/06/17 09:10:49;;;;;;;8.18;5.47;;;18.80;99.90;;;;;;4909215;29;20040;-79
2023/06/17 09:13:23;;;;;;;7.10;5.05;;;18.70;99.90;;;;;;4893934;29;20539;-73
2023/06/17 09:15:50;;;;;;;7.15;5.03;;;18.90;99.90;;;;;;4892112;29;20057;-74
2023/06/17 09:18:20;;;;;;;8.13;5.72;;;18.70;99.90;;;;;;4885000;29;20040;-74
2023/06/17 09:20:55;;;;;;;12.23;7.45;;;18.80;99.90;;;;;;4916847;29;20049;-75
2023/06/17 09:23:28;;;;;;;9.10;6.30;;;18.80;99.90;;;;;;4894550;29;20651;-82
2023/06/17 09:26:05;;;;;;;9.75;5.30;;;18.90;99.90;;;;;;4904686;29;20138;-79
2023/06/17 09:28:33;;;;;;;9.23;5.28;;;18.90;99.90;;;;;;4888835;29;20049;-76
2023/06/17 09:31:04;;;;;;;9.45;5.05;;;18.80;99.90;;;;;;4889658;29;20037;-72
2023/06/17 09:33:43;;;;;;;9.73;6.03;;;18.60;99.90;;;;;;4890545;29;20486;-75
2023/06/17 09:36:37;;;;;;;7.68;5.18;;;18.70;99.90;;;;;;4887436;29;20058;-77
2023/06/17 09:39:10;;;;;;;7.65;5.13;;;18.80;99.90;;;;;;4882736;29;20071;-76
2023/06/17 09:41:45;;;;;;;7.13;4.85;;;18.70;99.90;;;;;;4902251;29;20052;-81
2023/06/17 09:44:22;;;;;;;8.13;5.00;;;18.80;99.90;;;;;;4886421;29;20072;-73
2023/06/17 09:50:17;;;;;;;7.65;5.00;;;18.80;99.90;;;;;;4886092;29;20112;-74
2023/06/17 09:53:10;;;;;;;6.72;4.60;;;18.80;99.90;;;;;;4900680;29;20069;-80
2023/06/17 09:56:19;;;;;;;6.40;4.53;;;18.80;99.90;;;;;;4895008;29;20087;-79
2023/06/17 10:14:34;;;;;;;9.25;5.25;;;18.90;99.90;;;;;;5029620;23;20051;-84
2023/06/17 10:18:38;;;;;;;15.25;5.18;;;18.90;99.90;;;;;;4929854;29;20034;-85
2023/06/17 10:21:08;;;;;;;15.85;10.73;;;18.90;99.90;;;;;;4885494;29;20064;-77
2023/06/17 10:24:17;;;;;;;13.95;9.80;;;19.00;99.90;;;;;;4927566;29;20477;-76
2023/06/17 10:27:09;;;;;;;7.03;4.88;;;19.10;99.90;;;;;;4942137;29;20139;-78
2023/06/17 10:30:00;;;;;;;7.00;4.80;;;19.10;99.90;;;;;;4884631;29;20039;-75
2023/06/17 10:33:01;;;;;;;10.07;5.35;;;18.90;99.90;;;;;;4947571;29;20035;-83
2023/06/17 10:40:16;;;;;;;7.03;5.13;;;18.80;99.90;;;;;;4853729;29;20112;-75
2023/06/17 10:43:03;;;;;;;9.73;6.20;;;18.70;99.90;;;;;;4851640;29;20053;-74
2023/06/17 10:45:44;;;;;;;16.13;9.98;;;18.80;99.90;;;;;;4880608;29;20084;-75
2023/06/17 10:48:20;;;;;;;13.82;7.32;;;18.70;99.90;;;;;;4893582;29;20623;-74
2023/06/17 10:50:57;;;;;;;9.63;6.45;;;18.60;99.90;;;;;;4864246;29;20055;-77
2023/06/17 10:53:37;;;;;;;8.85;5.20;;;18.70;99.90;;;;;;4881370;29;20477;-74
2023/06/17 10:56:06;;;;;;;11.23;4.97;;;18.70;99.90;;;;;;4830695;29;20049;-81
2023/06/17 10:58:51;;;;;;;8.18;4.72;;;18.70;99.90;;;;;;4833562;29;20632;-74
2023/06/17 11:01:19;;;;;;;8.98;4.90;;;18.90;99.90;;;;;;4837765;29;20049;-74
2023/06/17 11:03:47;;;;;;;7.93;4.20;;;19.00;99.90;;;;;;4844508;29;20049;-75
2023/06/17 11:06:14;;;;;;;18.08;8.65;;;18.90;99.90;;;;;;4871630;29;20061;-76
2023/06/17 11:08:41;;;;;;;10.80;6.63;;;18.90;99.90;;;;;;4848457;29;20056;-75
2023/06/17 11:11:19;;;;;;;7.95;4.15;;;18.90;99.90;;;;;;4862700;29;20057;-78
2023/06/17 11:13:51;;;;;;;5.80;4.10;;;18.80;99.90;;;;;;4916090;29;20040;-75
2023/06/17 11:16:29;;;;;;;10.13;5.63;;;18.80;99.90;;;;;;4916138;29;20067;-82
2023/06/17 11:19:17;;;;;;;7.65;4.57;;;18.70;99.90;;;;;;4915012;29;20051;-80
2023/06/17 11:21:54;;;;;;;7.85;4.90;;;18.70;99.90;;;;;;4883909;29;20418;-82
2023/06/17 11:34:58;;;;;;;8.10;4.53;;;18.60;99.90;;;;;;5110485;23;20063;-82
2023/06/17 11:38:23;;;;;;;8.57;4.80;;;18.60;99.90;;;;;;4847605;29;20029;-78
2023/06/17 11:40:55;;;;;;;6.85;4.60;;;18.50;99.90;;;;;;4864859;29;20057;-82
2023/06/17 11:54:04;;;;;;;7.05;4.72;;;18.50;99.90;;;;;;5123802;23;20074;-76
2023/06/17 11:57:31;;;;;;;22.85;13.80;;;18.60;99.90;;;;;;4950406;29;20067;-78
2023/06/17 12:09:27;;;;;;;26.10;19.33;;;18.80;99.90;;;;;;4880472;29;20032;-74
2023/06/17 12:11:59;;;;;;;10.27;7.72;;;18.90;99.90;;;;;;4913400;29;20056;-76
2023/06/17 12:14:30;;;;;;;24.80;17.27;;;18.90;99.90;;;;;;4923645;29;20068;-75
2023/06/17 12:17:09;;;;;;;10.10;5.85;;;19.00;99.90;;;;;;4908293;29;20040;-76
2023/06/17 12:19:51;;;;;;;8.65;4.88;;;18.80;99.90;;;;;;4911864;29;20052;-76
2023/06/17 12:22:33;;;;;;;7.25;4.80;;;18.70;99.90;;;;;;4916822;29;20048;-75
2023/06/17 12:25:11;;;;;;;8.32;4.82;;;18.60;99.90;;;;;;4908867;29;20052;-76
2023/06/17 12:28:25;;;;;;;6.75;4.50;;;18.70;99.90;;;;;;4905561;29;20095;-79
2023/06/17 12:36:09;;;;;;;6.47;4.65;;;18.70;99.90;;;;;;4918080;29;20128;-76
2023/06/17 12:40:13;;;;;;;11.73;4.88;;;18.70;99.90;;;;;;4914066;29;20051;-81
2023/06/17 12:43:09;;;;;;;5.55;4.07;;;18.70;99.90;;;;;;4926528;29;20040;-75
2023/06/17 12:45:45;;;;;;;5.70;4.40;;;18.70;99.90;;;;;;4969856;23;20055;-79
2023/06/17 12:48:29;;;;;;;7.72;4.80;;;18.60;99.90;;;;;;4917576;29;20047;-84
2023/06/17 12:51:42;;;;;;;6.40;4.55;;;18.70;99.90;;;;;;4948856;29;20111;-78
2023/06/17 12:54:19;;;;;;;9.57;4.50;;;18.60;99.90;;;;;;4927832;28;20054;-79
2023/06/17 12:56:50;;;;;;;5.85;4.15;;;18.60;99.90;;;;;;4913452;29;20060;-77
2023/06/17 12:59:27;;;;;;;5.97;4.40;;;18.70;99.90;;;;;;4917213;29;20054;-76
2023/06/17 13:02:17;;;;;;;6.15;4.40;;;18.80;99.90;;;;;;4930116;28;20123;-80
2023/06/17 13:04:49;;;;;;;7.47;4.77;;;18.80;99.90;;;;;;4924509;29;20054;-79
2023/06/17 13:07:24;;;;;;;10.57;4.68;;;18.80;99.90;;;;;;4924446;29;20054;-77
2023/06/17 13:09:57;;;;;;;6.70;4.68;;;18.90;99.90;;;;;;4917067;23;20052;-82
2023/06/17 13:13:00;;;;;;;8.70;5.03;;;18.90;99.90;;;;;;4905959;29;20055;-77
2023/06/17 13:15:50;;;;;;;7.88;4.45;;;19.00;99.90;;;;;;4889763;29;20519;-80
2023/06/17 13:18:44;;;;;;;5.88;4.13;;;19.10;99.90;;;;;;4884427;29;20048;-81
2023/06/17 13:21:57;;;;;;;8.18;4.68;;;19.10;99.90;;;;;;4908633;29;20058;-76
2023/06/17 13:25:45;;;;;;;8.27;4.68;;;19.20;99.90;;;;;;4919171;29;20120;-75
2023/06/17 13:29:10;;;;;;;6.72;4.22;;;19.40;99.90;;;;;;4918791;29;20036;-76
2023/06/17 13:32:08;;;;;;;6.22;4.07;;;19.40;99.90;;;;;;4898569;29;20076;-75
2023/06/17 13:34:54;;;;;;;8.52;4.72;;;19.20;99.90;;;;;;4909505;29;20062;-77
2023/06/17 13:37:32;;;;;;;7.22;4.97;;;19.10;99.90;;;;;;4896282;29;20056;-76
2023/06/17 13:40:08;;;;;;;8.98;5.28;;;19.20;99.90;;;;;;4906741;29;20079;-72
2023/06/17 13:42:53;;;;;;;7.45;4.68;;;19.20;99.90;;;;;;4895371;29;20072;-73
2023/06/17 13:45:25;;;;;;;7.70;4.95;;;19.40;99.90;;;;;;4903970;29;20056;-73
2023/06/17 13:47:59;;;;;;;7.50;4.85;;;19.60;99.90;;;;;;4926929;29;20103;-79
2023/06/17 13:51:00;;;;;;;7.20;4.93;;;19.80;99.90;;;;;;4880479;29;20056;-76
2023/06/17 13:53:32;;;;;;;7.03;4.70;;;19.90;99.90;;;;;;4883419;29;20081;-76
2023/06/17 13:55:59;;;;;;;18.13;13.20;;;19.80;99.90;;;;;;4915037;29;20044;-79
2023/06/17 13:58:34;;;;;;;11.07;8.02;;;19.90;99.90;;;;;;4937200;29;20104;-75
2023/06/17 14:01:06;;;;;;;8.73;6.07;;;19.60;99.90;;;;;;4912753;29;20130;-74
2023/06/17 14:03:33;;;;;;;7.55;4.80;;;19.50;99.90;;;;;;4913106;29;20047;-80
2023/06/17 14:06:05;;;;;;;6.95;4.72;;;19.80;99.90;;;;;;4910331;29;20040;-76
2023/06/17 14:08:32;;;;;;;9.13;5.45;;;20.00;99.90;;;;;;4928763;29;20059;-73
2023/06/17 14:11:00;;;;;;;7.07;5.25;;;20.00;99.90;;;;;;4924340;29;20123;-79
2023/06/17 14:13:31;;;;;;;7.35;4.78;;;20.10;99.90;;;;;;4897261;29;20080;-77
2023/06/17 14:16:03;;;;;;;8.25;5.32;;;20.30;99.90;;;;;;4918921;29;20130;-77
2023/06/17 14:18:30;;;;;;;8.05;5.07;;;20.30;99.90;;;;;;4904283;29;20062;-75
2023/06/17 14:21:03;;;;;;;10.02;5.07;;;20.50;99.90;;;;;;4935666;29;20112;-78
2023/06/17 14:23:30;;;;;;;;;;;20.50;99.90;;;;;;4897833;29;20045;-80